createdAt,value
2019-03-23T00:01:05.461Z,1.85
2019-03-23T00:03:35.987Z,1.83
2019-03-23T00:06:06.524Z,1.82
2019-03-23T00:08:37.442Z,1.82
2019-03-23T00:11:08.379Z,1.87
2019-03-23T00:13:40.784Z,1.85
2019-03-23T00:16:11.455Z,1.88
2019-03-23T00:18:42.014Z,1.92
2019-03-23T00:21:12.936Z,1.91
2019-03-23T00:23:44.350Z,1.85
2019-03-23T00:26:15.393Z,1.83
2019-03-23T00:28:46.048Z,1.86
2019-03-23T00:31:16.483Z,1.89
2019-03-23T00:33:47.039Z,1.96
2019-03-23T00:36:17.837Z,2.00
2019-03-23T00:38:48.335Z,2.00
2019-03-23T00:41:18.847Z,2.03
2019-03-23T00:43:49.386Z,2.07
2019-03-23T00:46:20.026Z,2.10
2019-03-23T00:48:50.622Z,2.12
2019-03-23T00:51:21.537Z,2.12
2019-03-23T00:53:52.261Z,2.16
2019-03-23T00:56:23.563Z,2.19
2019-03-23T00:58:54.321Z,2.17
2019-03-23T01:01:25.004Z,2.18
2019-03-23T01:03:56.069Z,2.18
2019-03-23T01:06:26.557Z,2.22
2019-03-23T01:08:56.999Z,2.23
2019-03-23T01:11:27.520Z,2.24
2019-03-23T01:13:58.213Z,2.23
2019-03-23T01:16:28.958Z,2.25
2019-03-23T01:18:59.566Z,2.28
2019-03-23T01:21:30.057Z,2.31
2019-03-23T01:24:00.751Z,2.33
2019-03-23T01:26:33.654Z,2.31
2019-03-23T01:29:04.464Z,2.35
2019-03-23T01:31:35.122Z,2.32
2019-03-23T01:34:05.677Z,2.35
2019-03-23T01:36:36.413Z,2.38
2019-03-23T01:39:07.783Z,2.38
2019-03-23T01:41:38.933Z,2.37
2019-03-23T01:44:09.583Z,2.40
2019-03-23T01:46:40.313Z,2.41
2019-03-23T01:49:11.358Z,2.44
2019-03-23T01:51:41.912Z,2.38
2019-03-23T01:54:12.370Z,2.44
2019-03-23T01:56:42.557Z,2.47
2019-03-23T01:59:13.197Z,2.48
2019-03-23T02:01:43.737Z,2.49
2019-03-23T02:04:14.452Z,2.48
2019-03-23T02:06:44.925Z,2.50
2019-03-23T02:09:16.262Z,2.51
2019-03-23T02:11:46.925Z,2.53
2019-03-23T02:14:17.675Z,2.55
2019-03-23T02:16:48.863Z,2.55
2019-03-23T02:19:19.597Z,2.54
2019-03-23T02:21:49.953Z,2.57
2019-03-23T02:24:20.578Z,2.59
2019-03-23T02:26:51.020Z,2.63
2019-03-23T02:29:21.418Z,2.64
2019-03-23T02:31:52.126Z,2.63
2019-03-23T02:34:22.857Z,2.63
2019-03-23T02:36:53.665Z,2.65
2019-03-23T02:39:24.252Z,2.68
2019-03-23T02:41:57.706Z,2.68
2019-03-23T02:44:28.344Z,2.72
2019-03-23T02:46:58.932Z,2.72
2019-03-23T02:49:29.668Z,2.74
2019-03-23T02:52:00.423Z,2.73
2019-03-23T02:54:30.863Z,2.71
2019-03-23T02:57:01.420Z,2.69
2019-03-23T02:59:32.047Z,2.68
2019-03-23T03:02:03.302Z,2.72
2019-03-23T03:04:34.055Z,2.75
2019-03-23T03:07:04.557Z,2.76
2019-03-23T03:09:35.184Z,2.77
2019-03-23T03:12:05.779Z,2.79
2019-03-23T03:14:36.280Z,2.79
2019-03-23T03:17:07.257Z,2.77
2019-03-23T03:19:37.720Z,2.79
2019-03-23T03:22:07.979Z,2.81
2019-03-23T03:24:38.778Z,2.80
2019-03-23T03:27:09.317Z,2.84
2019-03-23T03:29:39.874Z,2.83
2019-03-23T03:32:10.720Z,2.86
2019-03-23T03:34:41.325Z,2.89
2019-03-23T03:37:11.888Z,2.90
2019-03-23T03:39:42.352Z,2.90
2019-03-23T03:42:13.052Z,2.92
2019-03-23T03:44:44.160Z,2.93
2019-03-23T03:47:14.845Z,2.89
2019-03-23T03:49:45.564Z,2.91
2019-03-23T03:52:16.416Z,2.95
2019-03-23T03:54:46.938Z,2.99
2019-03-23T03:57:18.214Z,3.00
2019-03-23T03:59:49.179Z,2.98
2019-03-23T04:02:19.961Z,3.01
2019-03-23T04:04:50.587Z,2.99
2019-03-23T04:07:21.189Z,3.01
2019-03-23T04:09:51.977Z,3.04
2019-03-23T04:12:22.966Z,3.05
2019-03-23T04:14:53.492Z,3.10
2019-03-23T04:17:23.918Z,3.14
2019-03-23T04:19:54.530Z,3.20
2019-03-23T04:22:25.218Z,3.26
2019-03-23T04:24:56.032Z,3.29
2019-03-23T04:27:26.825Z,3.33
2019-03-23T04:29:57.962Z,3.36
2019-03-23T04:32:28.401Z,3.41
2019-03-23T04:34:59.389Z,3.44
2019-03-23T04:37:30.189Z,3.48
2019-03-23T04:40:01.097Z,3.51
2019-03-23T04:42:31.851Z,3.54
2019-03-23T04:45:05.104Z,3.59
2019-03-23T04:47:35.905Z,3.62
2019-03-23T04:50:07.574Z,3.64
2019-03-23T04:52:39.021Z,3.62
2019-03-23T04:55:11.154Z,3.63
2019-03-23T04:57:41.423Z,3.69
2019-03-23T05:00:13.015Z,3.71
2019-03-23T05:02:43.669Z,3.73
2019-03-23T05:05:14.755Z,3.79
2019-03-23T05:07:45.575Z,3.79
2019-03-23T05:10:16.387Z,3.81
2019-03-23T05:12:47.535Z,3.82
2019-03-23T05:15:18.442Z,3.86
2019-03-23T05:17:49.497Z,3.88
2019-03-23T05:20:30.633Z,3.83
2019-03-23T05:23:01.757Z,3.86
2019-03-23T05:25:32.913Z,3.92
2019-03-23T05:28:03.889Z,3.93
2019-03-23T05:30:35.281Z,3.95
2019-03-23T05:33:05.983Z,3.96
2019-03-23T05:35:36.956Z,3.99
2019-03-23T05:38:07.951Z,4.05
2019-03-23T05:40:38.624Z,4.09
2019-03-23T05:43:09.356Z,4.11
2019-03-23T05:45:39.940Z,4.08
2019-03-23T05:48:10.435Z,4.07
2019-03-23T05:50:42.191Z,4.10
2019-03-23T05:53:12.890Z,4.09
2019-03-23T05:55:43.617Z,4.13
2019-03-23T05:58:14.162Z,4.12
2019-03-23T06:00:44.724Z,4.21
2019-03-23T06:03:15.470Z,4.32
2019-03-23T06:05:46.256Z,4.42
2019-03-23T06:08:17.609Z,4.49
2019-03-23T06:10:48.724Z,4.53
2019-03-23T06:13:19.252Z,4.59
2019-03-23T06:15:49.997Z,4.63
2019-03-23T06:18:21.207Z,4.63
2019-03-23T06:20:51.855Z,4.61
2019-03-23T06:23:22.673Z,4.64
2019-03-23T06:25:53.480Z,4.67
2019-03-23T06:28:23.974Z,4.67
2019-03-23T06:30:54.756Z,4.67
2019-03-23T06:33:25.485Z,4.70
2019-03-23T06:35:56.173Z,4.74
2019-03-23T06:38:26.787Z,4.76
2019-03-23T06:40:57.449Z,4.82
2019-03-23T06:43:28.198Z,4.97
2019-03-23T06:45:58.746Z,5.15
2019-03-23T06:48:29.476Z,5.30
2019-03-23T06:51:03.143Z,5.39
2019-03-23T06:53:33.924Z,5.41
2019-03-23T06:56:05.328Z,5.50
2019-03-23T06:58:36.228Z,5.66
2019-03-23T07:01:06.716Z,5.76
2019-03-23T07:03:37.484Z,5.65
2019-03-23T07:06:08.398Z,5.52
2019-03-23T07:08:39.606Z,5.44
2019-03-23T07:11:10.412Z,5.36
2019-03-23T07:13:41.066Z,5.25
2019-03-23T07:16:12.017Z,5.25
2019-03-23T07:18:43.023Z,5.26
2019-03-23T07:21:14.501Z,5.26
2019-03-23T07:23:45.475Z,5.33
2019-03-23T07:26:16.304Z,5.55
2019-03-23T07:28:47.154Z,5.70
2019-03-23T07:31:18.019Z,5.84
2019-03-23T07:33:49.532Z,5.93
2019-03-23T07:36:20.378Z,5.97
2019-03-23T07:38:51.377Z,5.97
2019-03-23T07:41:22.219Z,5.91
2019-03-23T07:43:52.827Z,5.84
2019-03-23T07:46:23.470Z,5.89
2019-03-23T07:48:54.162Z,5.86
2019-03-23T07:51:25.410Z,5.95
2019-03-23T07:53:56.857Z,6.03
2019-03-23T07:56:28.004Z,6.16
2019-03-23T07:58:58.889Z,6.18
2019-03-23T08:01:29.593Z,6.22
2019-03-23T08:04:02.224Z,6.32
2019-03-23T08:06:33.021Z,6.47
2019-03-23T08:09:04.313Z,6.58
2019-03-23T08:11:35.142Z,6.75
2019-03-23T08:14:05.627Z,6.90
2019-03-23T08:16:35.824Z,7.09
2019-03-23T08:19:06.764Z,7.24
2019-03-23T08:21:37.909Z,7.37
2019-03-23T08:24:08.639Z,7.26
2019-03-23T08:26:39.311Z,6.99
2019-03-23T08:29:10.921Z,6.89
2019-03-23T08:31:42.248Z,6.87
2019-03-23T08:34:13.441Z,6.85
2019-03-23T08:36:44.247Z,6.82
2019-03-23T08:39:15.369Z,6.89
2019-03-23T08:41:45.909Z,7.09
2019-03-23T08:44:16.745Z,7.17
2019-03-23T08:46:47.499Z,7.09
2019-03-23T08:49:18.383Z,7.09
2019-03-23T08:51:49.066Z,7.03
2019-03-23T08:54:20.342Z,6.90
2019-03-23T08:56:50.957Z,6.92
2019-03-23T08:59:21.711Z,6.82
2019-03-23T09:01:52.768Z,6.64
2019-03-23T09:04:23.597Z,6.72
2019-03-23T09:06:54.029Z,7.06
2019-03-23T09:09:24.717Z,7.51
2019-03-23T09:11:55.276Z,8.04
2019-03-23T09:14:28.749Z,8.54
2019-03-23T09:16:59.584Z,8.76
2019-03-23T09:19:30.361Z,8.59
2019-03-23T09:22:03.679Z,8.39
2019-03-23T09:24:36.698Z,8.43
2019-03-23T09:27:08.300Z,8.08
2019-03-23T09:29:38.796Z,8.08
2019-03-23T09:32:09.452Z,8.15
2019-03-23T09:34:40.280Z,8.24
2019-03-23T09:37:11.099Z,8.21
2019-03-23T09:39:41.753Z,8.08
2019-03-23T09:42:12.639Z,7.97
2019-03-23T09:44:43.106Z,7.61
2019-03-23T09:47:16.993Z,7.55
2019-03-23T09:49:47.403Z,7.56
2019-03-23T09:52:18.261Z,7.50
2019-03-23T09:54:49.083Z,7.34
2019-03-23T09:57:20.640Z,7.17
2019-03-23T09:59:51.490Z,6.95
2019-03-23T10:02:22.996Z,6.68
2019-03-23T10:04:53.794Z,6.47
2019-03-23T10:07:25.020Z,6.42
2019-03-23T10:09:56.381Z,6.42
2019-03-23T10:12:27.402Z,6.41
2019-03-23T10:14:58.177Z,6.37
2019-03-23T10:17:28.830Z,6.45
2019-03-23T10:19:59.723Z,6.57
2019-03-23T10:22:31.074Z,6.73
2019-03-23T10:25:01.758Z,6.97
2019-03-23T10:27:33.764Z,7.05
2019-03-23T10:30:05.390Z,7.11
2019-03-23T10:32:36.312Z,7.26
2019-03-23T10:35:07.483Z,7.66
2019-03-23T10:37:38.747Z,8.11
2019-03-23T10:40:09.787Z,8.25
2019-03-23T10:42:40.604Z,8.17
2019-03-23T10:45:11.787Z,8.03
2019-03-23T10:47:43.115Z,7.77
2019-03-23T10:50:14.051Z,7.41
2019-03-23T10:52:44.606Z,7.11
2019-03-23T10:55:15.259Z,6.97
2019-03-23T10:57:45.802Z,6.87
2019-03-23T11:00:16.736Z,6.78
2019-03-23T11:02:47.593Z,6.77
2019-03-23T11:05:18.130Z,6.87
2019-03-23T11:07:49.525Z,7.10
2019-03-23T11:10:20.358Z,7.53
2019-03-23T11:12:51.214Z,7.93
2019-03-23T11:15:21.977Z,8.10
2019-03-23T11:17:52.586Z,8.19
2019-03-23T11:20:23.156Z,8.17
2019-03-23T11:22:53.983Z,8.02
2019-03-23T11:25:25.090Z,7.86
2019-03-23T11:27:55.646Z,7.76
2019-03-23T11:30:26.362Z,7.71
2019-03-23T11:32:57.160Z,7.88
2019-03-23T11:35:27.989Z,8.16
2019-03-23T11:37:59.279Z,8.38
2019-03-23T11:40:31.198Z,8.40
2019-03-23T11:43:02.224Z,8.27
2019-03-23T11:45:33.203Z,8.11
2019-03-23T11:48:04.110Z,8.05
2019-03-23T11:50:34.571Z,7.96
2019-03-23T11:53:05.218Z,8.06
2019-03-23T11:55:35.986Z,8.18
2019-03-23T11:58:06.735Z,8.26
2019-03-23T12:00:38.327Z,8.23
2019-03-23T12:03:09.183Z,8.34
2019-03-23T12:05:39.667Z,8.36
2019-03-23T12:08:10.322Z,8.47
2019-03-23T12:10:40.878Z,8.68
2019-03-23T12:13:11.221Z,8.95
2019-03-23T12:15:41.931Z,9.05
2019-03-23T12:18:12.683Z,9.12
2019-03-23T12:20:43.576Z,9.17
2019-03-23T12:23:14.281Z,9.20
2019-03-23T12:25:45.188Z,9.17
2019-03-23T12:28:16.024Z,9.13
2019-03-23T12:30:46.760Z,9.03
2019-03-23T12:33:17.654Z,9.07
2019-03-23T12:35:48.170Z,9.28
2019-03-23T12:38:19.681Z,9.41
2019-03-23T12:40:50.264Z,9.45
2019-03-23T12:43:21.214Z,9.35
2019-03-23T12:45:51.852Z,9.31
2019-03-23T12:48:22.825Z,9.16
2019-03-23T12:50:53.543Z,9.08
2019-03-23T12:53:24.445Z,9.09
2019-03-23T12:55:55.133Z,9.09
2019-03-23T12:58:25.997Z,9.07
2019-03-23T13:00:56.794Z,8.94
2019-03-23T13:03:27.529Z,8.75
2019-03-23T13:05:58.060Z,8.59
2019-03-23T13:08:28.723Z,8.46
2019-03-23T13:10:59.370Z,8.35
2019-03-23T13:13:30.110Z,8.25
2019-03-23T13:16:00.582Z,8.14
2019-03-23T13:18:31.557Z,8.09
2019-03-23T13:21:03.141Z,8.18
2019-03-23T13:23:33.948Z,8.30
2019-03-23T13:26:04.528Z,8.39
2019-03-23T13:28:35.273Z,8.44
2019-03-23T13:31:05.551Z,8.54
2019-03-23T13:33:39.852Z,8.61
2019-03-23T13:36:10.656Z,8.50
2019-03-23T13:38:41.660Z,8.29
2019-03-23T13:41:12.397Z,8.25
2019-03-23T13:43:43.143Z,8.16
2019-03-23T13:46:14.319Z,8.05
2019-03-23T13:48:44.982Z,8.02
2019-03-23T13:51:15.870Z,8.02
2019-03-23T13:53:46.487Z,7.98
2019-03-23T13:56:17.083Z,7.96
2019-03-23T13:58:47.953Z,7.83
2019-03-23T14:01:18.388Z,7.67
2019-03-23T14:03:48.942Z,7.52
2019-03-23T14:06:20.098Z,7.37
2019-03-23T14:08:50.996Z,7.39
2019-03-23T14:11:21.742Z,7.42
2019-03-23T14:13:53.257Z,7.39
2019-03-23T14:16:24.073Z,7.33
2019-03-23T14:18:54.751Z,7.35
2019-03-23T14:21:25.519Z,7.32
2019-03-23T14:23:56.188Z,7.26
2019-03-23T14:26:26.919Z,7.22
2019-03-23T14:28:57.692Z,7.15
2019-03-23T14:31:28.284Z,7.11
2019-03-23T14:33:58.962Z,6.96
2019-03-23T14:36:29.683Z,6.89
2019-03-23T14:39:00.462Z,6.83
2019-03-23T14:41:31.907Z,6.79
2019-03-23T14:44:03.206Z,6.75
2019-03-23T14:46:34.003Z,6.76
2019-03-23T14:49:07.318Z,6.77
2019-03-23T14:51:37.976Z,6.79
2019-03-23T14:54:08.788Z,6.81
2019-03-23T14:56:39.435Z,6.76
2019-03-23T14:59:10.109Z,6.71
2019-03-23T15:01:41.091Z,6.67
2019-03-23T15:04:11.826Z,6.65
2019-03-23T15:06:42.759Z,6.64
2019-03-23T15:09:14.488Z,6.63
2019-03-23T15:11:45.506Z,6.62
2019-03-23T15:14:16.412Z,6.63
2019-03-23T15:16:47.177Z,6.62
2019-03-23T15:19:18.064Z,6.57
2019-03-23T15:21:48.688Z,6.53
2019-03-23T15:24:19.372Z,6.48
2019-03-23T15:26:50.029Z,6.43
2019-03-23T15:29:20.495Z,6.39
2019-03-23T15:31:51.542Z,6.36
2019-03-23T15:34:22.178Z,6.33
2019-03-23T15:36:52.829Z,6.28
2019-03-23T15:39:24.341Z,6.27
2019-03-23T15:41:55.062Z,6.24
2019-03-23T15:44:26.289Z,6.22
2019-03-23T15:46:57.285Z,6.21
2019-03-23T15:49:28.285Z,6.20
2019-03-23T15:51:58.854Z,6.19
2019-03-23T15:54:31.899Z,6.18
2019-03-23T15:57:02.711Z,6.17
2019-03-23T15:59:33.815Z,6.14
2019-03-23T16:02:05.503Z,6.12
2019-03-23T16:04:37.140Z,6.11
2019-03-23T16:07:08.244Z,6.07
2019-03-23T16:09:39.810Z,6.07
2019-03-23T16:12:11.936Z,6.06
2019-03-23T16:14:43.708Z,6.06
2019-03-23T16:17:14.694Z,6.04
2019-03-23T16:19:45.807Z,6.05
2019-03-23T16:22:17.149Z,6.05
2019-03-23T16:24:47.833Z,6.04
2019-03-23T16:27:18.603Z,6.06
2019-03-23T16:29:49.345Z,6.04
2019-03-23T16:32:22.006Z,6.03
2019-03-23T16:34:52.655Z,6.02
2019-03-23T16:37:23.586Z,5.99
2019-03-23T16:39:54.800Z,5.97
2019-03-23T16:42:25.755Z,5.94
2019-03-23T16:44:56.629Z,5.85
2019-03-23T16:47:27.489Z,5.75
2019-03-23T16:49:59.185Z,5.71
2019-03-23T16:52:31.044Z,5.70
2019-03-23T16:55:02.412Z,5.69
2019-03-23T16:57:34.385Z,5.63
2019-03-23T17:00:05.859Z,5.54
2019-03-23T17:02:36.740Z,5.38
2019-03-23T17:05:08.083Z,5.22
2019-03-23T17:07:39.111Z,5.08
2019-03-23T17:10:10.363Z,4.93
2019-03-23T17:12:41.270Z,4.79
2019-03-23T17:15:12.607Z,4.62
2019-03-23T17:17:43.678Z,4.49
2019-03-23T17:20:14.713Z,4.39
2019-03-23T17:22:46.865Z,4.36
2019-03-23T17:25:18.209Z,4.33
2019-03-23T17:27:49.298Z,4.27
2019-03-23T17:30:20.684Z,4.22
2019-03-23T17:32:51.725Z,4.15
2019-03-23T17:35:25.612Z,4.11
2019-03-23T17:37:56.708Z,4.06
2019-03-23T17:40:27.578Z,4.03
2019-03-23T17:43:06.033Z,4.01
2019-03-23T17:45:35.268Z,3.99
2019-03-23T17:48:05.771Z,3.96
2019-03-23T17:50:38.511Z,3.93
2019-03-23T17:53:09.423Z,3.87
2019-03-23T17:55:43.176Z,3.89
2019-03-23T17:58:14.210Z,3.91
2019-03-23T18:00:44.754Z,3.89
2019-03-23T18:03:15.410Z,3.82
2019-03-23T18:05:46.122Z,3.77
2019-03-23T18:08:17.502Z,3.78
2019-03-23T18:10:48.424Z,3.70
2019-03-23T18:13:19.607Z,3.56
2019-03-23T18:15:51.422Z,3.46
2019-03-23T18:18:22.457Z,3.35
2019-03-23T18:24:46.085Z,3.24
2019-03-23T18:27:19.487Z,3.24
2019-03-23T18:29:49.985Z,3.32
2019-03-23T18:32:21.457Z,3.38
2019-03-23T18:34:53.230Z,3.38
2019-03-23T18:37:23.979Z,3.36
2019-03-23T18:39:54.665Z,3.32
2019-03-23T18:42:25.524Z,3.26
2019-03-23T18:44:56.310Z,3.22
2019-03-23T18:47:27.048Z,3.19
2019-03-23T18:49:57.937Z,3.16
2019-03-23T18:52:28.949Z,3.14
2019-03-23T18:55:02.447Z,3.09
2019-03-23T18:57:33.516Z,3.11
2019-03-23T19:00:05.159Z,3.14
2019-03-23T19:02:36.074Z,3.11
2019-03-23T19:05:07.142Z,3.10
2019-03-23T19:07:40.053Z,3.11
2019-03-23T19:10:11.177Z,3.07
2019-03-23T19:12:42.102Z,3.02
2019-03-23T19:15:13.002Z,2.94
2019-03-23T19:17:44.074Z,2.91
2019-03-23T19:20:15.007Z,2.85
2019-03-23T19:22:45.847Z,2.84
2019-03-23T19:25:18.502Z,2.87
2019-03-23T19:27:49.478Z,2.88
2019-03-23T19:30:20.555Z,2.87
2019-03-23T19:32:51.681Z,2.82
2019-03-23T19:35:23.932Z,2.75
2019-03-23T19:37:54.639Z,2.70
2019-03-23T19:40:25.966Z,2.68
2019-03-23T19:42:56.937Z,2.66
2019-03-23T19:45:27.983Z,2.64
2019-03-23T19:47:58.956Z,2.60
2019-03-23T19:50:29.776Z,2.53
2019-03-23T19:53:00.875Z,2.46
2019-03-23T19:55:36.804Z,2.39
2019-03-23T19:58:07.903Z,2.34
2019-03-23T20:00:39.443Z,2.34
2019-03-23T20:03:11.548Z,2.41
2019-03-23T20:05:44.758Z,2.43
2019-03-23T20:08:16.673Z,2.39
2019-03-23T20:10:47.338Z,2.35
2019-03-23T20:13:18.849Z,2.31
2019-03-23T20:15:50.236Z,2.28
2019-03-23T20:18:21.243Z,2.27
2019-03-23T20:20:54.426Z,2.31
2019-03-23T20:23:25.207Z,2.30
2019-03-23T20:25:56.371Z,2.29
2019-03-23T20:28:27.305Z,2.35
2019-03-23T20:30:58.100Z,2.45
2019-03-23T20:33:28.845Z,2.47
2019-03-23T20:35:59.666Z,2.42
2019-03-23T20:38:30.338Z,2.34
2019-03-23T20:41:01.501Z,2.29
2019-03-23T20:43:32.250Z,2.25
2019-03-23T20:46:02.882Z,2.30
2019-03-23T20:48:33.575Z,2.35
2019-03-23T20:51:04.957Z,2.39
2019-03-23T20:53:35.848Z,2.43
2019-03-23T20:56:06.533Z,2.47
2019-03-23T20:58:37.323Z,2.47
2019-03-23T21:01:08.302Z,2.43
2019-03-23T21:03:39.567Z,2.40
2019-03-23T21:06:12.462Z,2.40
2019-03-23T21:08:42.737Z,2.44
2019-03-23T21:11:14.169Z,2.50
2019-03-23T21:13:46.778Z,2.59
2019-03-23T21:16:18.482Z,2.65
2019-03-23T21:18:49.098Z,2.67
2019-03-23T21:21:20.034Z,2.64
2019-03-23T21:23:52.087Z,2.65
2019-03-23T21:26:23.561Z,2.64
2019-03-23T21:28:54.154Z,2.61
2019-03-23T21:31:24.854Z,2.58
2019-03-23T21:33:55.294Z,2.59
2019-03-23T21:36:25.957Z,2.59
2019-03-23T21:38:56.959Z,2.57
2019-03-23T21:41:28.315Z,2.57
2019-03-23T21:43:59.055Z,2.55
2019-03-23T21:46:29.640Z,2.52
2019-03-23T21:49:00.067Z,2.49
2019-03-23T21:51:30.520Z,2.44
2019-03-23T21:54:00.996Z,2.44
2019-03-23T21:56:31.992Z,2.43
2019-03-23T21:59:02.510Z,2.40
2019-03-23T22:01:33.299Z,2.40
2019-03-23T22:04:04.162Z,2.41
2019-03-23T22:06:34.857Z,2.41
2019-03-23T22:09:06.640Z,2.34
2019-03-23T22:11:37.604Z,2.30
2019-03-23T22:14:08.121Z,2.21
2019-03-23T22:16:38.905Z,2.09
2019-03-23T22:19:09.769Z,2.01
2019-03-23T22:21:40.588Z,2.00
2019-03-23T22:24:11.164Z,2.00
2019-03-23T22:26:41.779Z,2.04
2019-03-23T22:29:12.222Z,2.07
2019-03-23T22:31:43.073Z,2.14
2019-03-23T22:34:13.632Z,2.13
2019-03-23T22:36:44.510Z,2.09
2019-03-23T22:39:15.082Z,2.04
2019-03-23T22:41:45.661Z,2.00
2019-03-23T22:44:16.793Z,1.99
2019-03-23T22:46:48.111Z,2.00
2019-03-23T22:49:21.456Z,2.03
2019-03-23T22:51:52.089Z,2.05
2019-03-23T22:54:22.748Z,2.07
2019-03-23T22:56:53.097Z,2.08
2019-03-23T22:59:24.609Z,2.08
2019-03-23T23:01:55.128Z,2.09
2019-03-23T23:04:25.788Z,2.09
2019-03-23T23:06:56.777Z,2.02
2019-03-23T23:09:27.504Z,1.94
2019-03-23T23:11:58.193Z,1.86
2019-03-23T23:14:28.805Z,1.84
2019-03-23T23:17:00.027Z,1.85
2019-03-23T23:19:31.312Z,1.90
2019-03-23T23:22:01.923Z,2.01
2019-03-23T23:24:32.515Z,2.09
2019-03-23T23:27:03.078Z,2.16
2019-03-23T23:29:34.000Z,2.21
2019-03-23T23:32:04.671Z,2.23
2019-03-23T23:34:35.334Z,2.20
2019-03-23T23:37:05.864Z,2.18
2019-03-23T23:39:36.352Z,2.15
2019-03-23T23:42:06.831Z,2.09
2019-03-23T23:44:37.621Z,2.05
2019-03-23T23:47:08.291Z,2.05
2019-03-23T23:49:39.326Z,2.04
2019-03-23T23:52:09.948Z,2.04
2019-03-23T23:54:40.364Z,2.03
2019-03-23T23:57:11.020Z,2.03
2019-03-23T23:59:41.543Z,2.01
